Time;durP1;ratioP1;P1;durP2;ratioP2;P2;SDS_P1;SDS_P2;PMS_P1;PMS_P2;Temp;Humidity;BMP_temperature;BMP_pressure;BME280_temperature;BME280_humidity;BME280_pressure;Samples;Min_cycle;Max_cycle;Signal;HPM_P1;HPM_P2
2022/10/04 00:00:36;;;;;;;3.60;1.52;;;;;;;11.46;55.85;95125.38;5038226;28;20217;-66
2022/10/04 00:03:15;;;;;;;3.05;1.70;;;;;;;11.42;55.86;95132.78;5023271;28;20202;-66
2022/10/04 00:05:41;;;;;;;3.50;1.45;;;;;;;11.52;55.85;95124.78;5027325;28;20214;-66
2022/10/04 00:08:34;;;;;;;4.68;1.45;;;;;;;11.51;55.77;95131.00;5028819;28;20196;-66
2022/10/04 00:11:22;;;;;;;2.53;1.33;;;;;;;11.46;55.93;95128.00;5027556;28;20207;-66
2022/10/04 00:13:53;;;;;;;3.50;1.45;;;;;;;11.49;55.57;95140.88;5034860;28;20271;-66
2022/10/04 00:16:30;;;;;;;2.55;1.25;;;;;;;11.36;56.33;95141.28;5031324;28;20201;-66
2022/10/04 00:19:19;;;;;;;3.17;1.60;;;;;;;11.39;55.97;95132.28;5031508;28;20227;-66
2022/10/04 00:21:56;;;;;;;4.55;1.60;;;;;;;11.40;55.67;95123.38;5031774;28;20181;-66
2022/10/04 00:24:30;;;;;;;1.58;1.23;;;;;;;11.46;55.98;95120.13;5033507;28;20181;-66
2022/10/04 00:27:24;;;;;;;2.15;1.38;;;;;;;11.50;55.90;95113.56;5032802;28;20209;-66
2022/10/04 00:30:01;;;;;;;2.07;1.30;;;;;;;11.62;55.09;95120.22;5030389;28;20201;-65
2022/10/04 00:32:30;;;;;;;1.35;1.23;;;;;;;11.54;55.09;95124.63;5028686;28;20202;-65
2022/10/04 00:34:58;;;;;;;1.35;1.10;;;;;;;11.52;54.67;95110.78;5031061;28;20186;-65
2022/10/04 00:37:26;;;;;;;1.75;1.40;;;;;;;11.58;54.51;95116.25;5031488;28;20177;-67
2022/10/04 00:40:14;;;;;;;2.83;1.38;;;;;;;11.52;54.15;95105.50;5029595;28;20182;-67
2022/10/04 00:42:56;;;;;;;3.17;1.30;;;;;;;11.44;54.43;95109.75;5039548;28;20183;-66
2022/10/04 00:45:39;;;;;;;2.78;1.38;;;;;;;11.48;54.06;95099.72;5033785;28;20196;-65
2022/10/04 00:48:30;;;;;;;1.47;1.13;;;;;;;11.33;54.21;95091.56;5033784;28;20185;-65
2022/10/04 00:51:10;;;;;;;2.42;1.85;;;;;;;11.29;54.49;95086.78;5031282;28;20233;-66
2022/10/04 00:53:43;;;;;;;1.95;1.33;;;;;;;11.32;54.71;95086.47;5032696;28;20186;-67
2022/10/04 00:56:18;;;;;;;2.42;1.40;;;;;;;11.29;54.81;95076.25;5027966;28;20190;-67
2022/10/04 00:58:59;;;;;;;2.07;1.20;;;;;;;11.26;54.73;95072.94;5037291;28;20259;-67
2022/10/04 01:01:27;;;;;;;1.20;1.10;;;;;;;11.23;54.72;95082.97;5028595;28;20278;-68
2022/10/04 01:03:57;;;;;;;1.57;1.00;;;;;;;11.09;54.90;95075.59;5033939;28;20205;-68
2022/10/04 01:06:25;;;;;;;2.53;1.17;;;;;;;11.07;55.11;95080.22;5033339;28;20212;-67
2022/10/04 01:08:55;;;;;;;1.63;1.10;;;;;;;11.05;54.94;95088.25;5032418;28;20269;-67
2022/10/04 01:11:30;;;;;;;2.80;1.20;;;;;;;11.06;54.58;95086.44;5031945;28;20213;-67
2022/10/04 01:14:04;;;;;;;1.30;1.10;;;;;;;11.04;54.79;95084.78;5035475;28;20190;-67
2022/10/04 01:16:35;;;;;;;1.40;1.23;;;;;;;11.01;55.05;95093.00;5034222;28;20190;-67
2022/10/04 01:19:25;;;;;;;4.20;1.20;;;;;;;11.15;54.59;95088.16;5033594;28;20255;-67
2022/10/04 01:22:06;;;;;;;2.65;1.60;;;;;;;11.14;54.54;95086.50;5033147;28;20189;-67
2022/10/04 01:24:39;;;;;;;1.23;1.13;;;;;;;11.11;54.44;95087.63;5033844;28;20275;-67
2022/10/04 01:27:40;;;;;;;1.83;1.15;;;;;;;11.18;54.29;95079.97;5036196;28;20193;-67
2022/10/04 01:30:11;;;;;;;1.10;1.02;;;;;;;10.97;54.88;95081.13;5036968;28;20189;-67
2022/10/04 01:32:38;;;;;;;4.00;1.38;;;;;;;10.99;54.64;95070.44;5032214;28;20187;-67
2022/10/04 01:35:05;;;;;;;1.60;1.20;;;;;;;10.92;54.65;95072.84;5034284;28;20215;-68
2022/10/04 01:37:31;;;;;;;2.45;1.40;;;;;;;10.89;54.81;95088.94;5036531;28;20212;-68
2022/10/04 01:39:57;;;;;;;1.30;1.20;;;;;;;10.79;54.54;95083.75;5036783;28;20178;-69
2022/10/04 01:42:31;;;;;;;2.10;1.10;;;;;;;10.80;54.06;95080.16;5032313;28;20186;-68
2022/10/04 01:45:13;;;;;;;2.92;0.90;;;;;;;10.72;54.51;95081.88;5033495;28;20206;-68
2022/10/04 01:47:58;;;;;;;2.60;1.10;;;;;;;10.67;54.61;95074.47;5036347;28;20186;-68
2022/10/04 01:50:40;;;;;;;1.27;1.17;;;;;;;10.72;54.68;95082.72;5033696;28;20213;-68
2022/10/04 01:53:06;;;;;;;2.08;1.10;;;;;;;10.75;54.30;95069.28;5031856;28;20197;-69
2022/10/04 01:55:34;;;;;;;2.63;1.30;;;;;;;10.64;54.72;95074.75;5034019;28;20190;-68
2022/10/04 01:58:09;;;;;;;1.23;1.13;;;;;;;10.68;54.61;95076.09;5033701;28;20197;-69
2022/10/04 02:00:40;;;;;;;1.60;1.13;;;;;;;10.68;54.97;95083.16;5031354;28;20265;-69
2022/10/04 02:03:31;;;;;;;1.90;1.20;;;;;;;10.73;54.36;95080.91;5033469;28;20215;-68
2022/10/04 02:06:01;;;;;;;1.92;1.10;;;;;;;10.68;54.78;95077.91;5025634;28;20182;-67
2022/10/04 02:08:31;;;;;;;1.20;1.10;;;;;;;10.65;54.71;95086.09;5033437;28;20178;-67
2022/10/04 02:10:59;;;;;;;1.85;1.10;;;;;;;10.69;54.95;95084.81;5039739;28;20201;-67
2022/10/04 02:13:31;;;;;;;3.80;1.30;;;;;;;10.58;55.25;95102.50;5030900;28;20191;-67
2022/10/04 02:15:58;;;;;;;1.33;0.93;;;;;;;10.64;55.37;95097.59;5036669;28;20196;-67
2022/10/04 02:18:24;;;;;;;1.83;1.10;;;;;;;10.77;55.04;95101.50;5032721;28;20208;-67
2022/10/04 02:20:51;;;;;;;2.20;1.20;;;;;;;10.65;55.65;95107.16;5036230;28;20185;-67
2022/10/04 02:23:20;;;;;;;1.77;1.10;;;;;;;10.65;55.62;95101.88;5031552;28;20320;-67
2022/10/04 02:25:45;;;;;;;1.50;1.17;;;;;;;10.64;55.92;95105.47;5030623;28;20190;-67
2022/10/04 02:28:13;;;;;;;1.83;0.95;;;;;;;10.53;56.09;95103.88;5036562;28;20196;-67
2022/10/04 02:30:42;;;;;;;1.90;1.30;;;;;;;10.48;56.48;95104.34;5033980;28;20418;-67
2022/10/04 02:33:09;;;;;;;1.25;1.00;;;;;;;10.57;56.16;95095.56;5045767;28;20237;-67
2022/10/04 02:35:53;;;;;;;1.83;1.27;;;;;;;10.48;56.80;95101.72;5032950;28;20281;-66
2022/10/04 02:38:34;;;;;;;1.50;1.30;;;;;;;10.50;56.79;95112.06;5031969;28;20267;-67
2022/10/04 02:41:16;;;;;;;1.83;1.30;;;;;;;10.55;56.75;95112.47;5035973;28;20244;-68
2022/10/04 02:43:55;;;;;;;1.15;1.10;;;;;;;10.53;57.02;95120.50;5033610;28;20284;-68
2022/10/04 02:46:28;;;;;;;1.70;1.20;;;;;;;10.35;57.79;95114.41;5032179;28;20204;-67
2022/10/04 02:49:00;;;;;;;2.33;1.30;;;;;;;10.37;58.17;95125.56;5026413;28;20198;-67
2022/10/04 02:51:51;;;;;;;3.23;1.23;;;;;;;10.51;57.58;95122.47;5035387;28;20582;-67
2022/10/04 02:54:35;;;;;;;2.53;1.40;;;;;;;10.62;57.54;95128.47;5033249;28;20301;-68
2022/10/04 02:57:01;;;;;;;2.53;1.43;;;;;;;10.46;58.14;95124.69;5037938;28;20193;-68
2022/10/04 02:59:30;;;;;;;2.63;1.20;;;;;;;10.41;58.33;95126.94;5031688;28;20201;-67
2022/10/04 03:01:58;;;;;;;2.42;1.50;;;;;;;10.54;57.83;95124.78;5030781;28;20197;-67
2022/10/04 03:04:32;;;;;;;1.48;1.27;;;;;;;10.45;58.07;95122.22;5029830;28;20194;-67
2022/10/04 03:07:03;;;;;;;5.63;1.40;;;;;;;10.48;58.40;95127.19;5027765;28;20197;-67
2022/10/04 03:09:29;;;;;;;2.35;1.35;;;;;;;10.54;58.09;95137.09;5025390;28;20191;-67
2022/10/04 03:11:55;;;;;;;1.50;1.23;;;;;;;10.56;58.04;95138.63;5031882;28;20217;-68
2022/10/04 03:14:23;;;;;;;1.37;1.20;;;;;;;10.43;58.69;95146.03;5035003;28;20190;-68
2022/10/04 03:16:52;;;;;;;3.00;1.70;;;;;;;10.41;58.79;95141.91;5031950;28;20201;-69
2022/10/04 03:19:19;;;;;;;2.58;1.50;;;;;;;10.42;58.81;95133.84;5030880;28;20209;-68
2022/10/04 03:21:48;;;;;;;1.40;1.30;;;;;;;10.36;59.13;95134.44;5027952;28;20208;-68
2022/10/04 03:24:28;;;;;;;2.38;1.30;;;;;;;10.37;58.69;95136.94;5029892;28;20196;-68
2022/10/04 03:26:56;;;;;;;2.57;1.40;;;;;;;10.33;58.96;95137.38;5028076;28;20186;-68
2022/10/04 03:29:25;;;;;;;2.03;1.63;;;;;;;10.25;59.54;95139.88;5030483;28;20183;-68
2022/10/04 03:31:57;;;;;;;1.65;1.40;;;;;;;10.24;59.23;95140.88;5035991;28;20285;-68
2022/10/04 03:34:27;;;;;;;2.40;1.43;;;;;;;10.30;59.03;95146.38;5033603;28;20205;-68
2022/10/04 03:36:57;;;;;;;1.97;1.60;;;;;;;10.27;58.72;95151.94;5031971;28;20182;-68
2022/10/04 03:39:33;;;;;;;3.20;1.60;;;;;;;10.25;58.79;95142.50;5032392;28;20194;-69
2022/10/04 03:42:05;;;;;;;1.90;1.30;;;;;;;10.35;58.64;95154.66;5027837;28;20181;-68
2022/10/04 03:44:31;;;;;;;3.03;1.57;;;;;;;10.30;58.58;95156.06;5032485;28;20204;-68
2022/10/04 03:46:58;;;;;;;4.53;1.50;;;;;;;10.30;58.76;95159.50;5030728;28;20189;-68
2022/10/04 03:49:36;;;;;;;2.33;1.40;;;;;;;10.23;59.26;95154.97;5047096;28;20644;-70
2022/10/04 03:52:04;;;;;;;2.87;1.40;;;;;;;10.29;58.80;95155.25;5012918;28;20309;-68
2022/10/04 03:54:30;;;;;;;2.10;1.30;;;;;;;10.30;58.97;95158.69;5031584;28;20200;-67
2022/10/04 03:56:58;;;;;;;2.28;1.45;;;;;;;10.28;58.66;95161.47;5031262;28;20273;-67
2022/10/04 03:59:25;;;;;;;4.70;1.40;;;;;;;10.27;58.75;95162.44;5032106;28;20182;-67
2022/10/04 04:02:00;;;;;;;1.97;1.10;;;;;;;10.24;58.82;95167.97;5029110;28;20182;-68
2022/10/04 04:04:42;;;;;;;3.30;1.50;;;;;;;10.23;58.95;95165.47;5029577;28;20190;-68
2022/10/04 04:07:26;;;;;;;3.53;1.83;;;;;;;10.31;58.86;95165.59;5030273;28;20220;-68
2022/10/04 04:09:54;;;;;;;2.20;2.00;;;;;;;10.30;58.75;95162.16;5032345;28;20205;-67
2022/10/04 04:12:26;;;;;;;1.67;1.47;;;;;;;10.26;58.82;95168.63;5023709;28;20252;-68
2022/10/04 04:14:53;;;;;;;1.83;1.40;;;;;;;10.35;58.73;95172.22;5037299;28;20186;-68
2022/10/04 04:17:24;;;;;;;2.40;1.40;;;;;;;10.27;58.73;95172.09;5029996;28;20212;-69
2022/10/04 04:19:50;;;;;;;2.10;1.53;;;;;;;10.27;59.02;95182.63;5039042;28;20268;-69
2022/10/04 04:22:17;;;;;;;3.43;1.83;;;;;;;10.16;59.11;95184.44;5031449;28;20182;-68
2022/10/04 04:24:44;;;;;;;3.57;1.80;;;;;;;10.16;59.17;95176.56;5042492;28;20213;-67
2022/10/04 04:27:15;;;;;;;3.10;1.60;;;;;;;10.24;58.99;95188.16;5034140;28;20277;-68
2022/10/04 04:29:51;;;;;;;2.10;1.50;;;;;;;10.16;58.94;95188.88;5029770;28;20199;-68
2022/10/04 04:32:27;;;;;;;2.73;1.77;;;;;;;10.19;58.96;95182.50;5033682;28;20220;-71
2022/10/04 04:34:57;;;;;;;3.33;1.70;;;;;;;10.20;59.20;95192.88;5027730;28;20177;-71
2022/10/04 04:37:23;;;;;;;6.60;1.60;;;;;;;10.24;59.10;95196.06;5035640;28;20267;-70
2022/10/04 04:39:53;;;;;;;3.13;1.80;;;;;;;10.26;59.01;95191.44;5035541;28;20186;-70
2022/10/04 04:42:33;;;;;;;3.03;2.10;;;;;;;10.26;58.96;95191.44;5034737;28;20182;-69
2022/10/04 04:45:13;;;;;;;2.63;1.90;;;;;;;10.27;59.26;95195.75;5035253;28;20239;-66
2022/10/04 04:47:49;;;;;;;2.07;1.77;;;;;;;10.29;58.96;95196.44;5028671;28;20198;-67
2022/10/04 04:50:22;;;;;;;2.40;1.63;;;;;;;10.32;59.01;95197.00;5033574;28;20209;-66
2022/10/04 04:52:59;;;;;;;4.33;2.63;;;;;;;10.31;58.83;95203.22;5034744;28;20258;-66
2022/10/04 04:55:45;;;;;;;3.73;2.10;;;;;;;10.42;58.07;95206.63;5030490;28;20189;-66
2022/10/04 04:58:32;;;;;;;3.40;1.67;;;;;;;10.37;58.24;95201.81;5035752;28;20190;-66
2022/10/04 05:01:24;;;;;;;4.70;2.10;;;;;;;10.31;58.42;95210.28;5036184;28;20189;-66
2022/10/04 05:04:22;;;;;;;2.80;1.60;;;;;;;10.32;58.11;95209.31;5031197;28;20252;-66
2022/10/04 05:06:59;;;;;;;3.77;1.60;;;;;;;10.39;57.84;95207.75;4993279;28;20211;-66
2022/10/04 05:09:31;;;;;;;1.83;1.73;;;;;;;10.44;57.84;95204.69;4976561;28;20191;-66
2022/10/04 05:12:06;;;;;;;2.17;1.70;;;;;;;10.55;57.51;95212.38;4976348;28;20226;-66
2022/10/04 05:14:34;;;;;;;3.07;1.80;;;;;;;10.53;57.16;95209.06;4965132;28;20178;-66
2022/10/04 05:16:59;;;;;;;2.90;2.00;;;;;;;10.56;57.09;95209.59;4995942;28;20242;-65
2022/10/04 05:19:38;;;;;;;2.20;2.00;;;;;;;10.75;56.67;95215.72;4980421;28;20211;-65
2022/10/04 05:22:10;;;;;;;2.60;1.67;;;;;;;10.68;56.77;95212.84;4977136;28;20198;-65
2022/10/04 05:25:04;;;;;;;2.10;1.60;;;;;;;10.68;57.10;95215.47;4977243;28;20202;-67
2022/10/04 05:27:35;;;;;;;2.47;1.70;;;;;;;10.79;56.63;95217.06;4977202;28;20242;-69
2022/10/04 05:30:19;;;;;;;2.23;1.87;;;;;;;10.72;57.06;95214.22;4978974;28;20655;-66
2022/10/04 05:33:02;;;;;;;2.93;1.70;;;;;;;10.76;56.72;95222.63;4989605;28;20184;-66
2022/10/04 05:35:28;;;;;;;2.30;1.83;;;;;;;10.60;57.42;95220.66;4955721;28;20212;-66
2022/10/04 05:38:22;;;;;;;4.50;2.17;;;;;;;10.68;57.21;95230.44;4991247;28;20196;-67
2022/10/04 05:41:01;;;;;;;3.10;1.90;;;;;;;10.71;56.93;95233.59;4995102;28;20275;-68
2022/10/04 05:43:37;;;;;;;2.13;1.80;;;;;;;10.73;57.13;95242.16;5017547;28;20235;-67
2022/10/04 05:46:25;;;;;;;2.90;2.37;;;;;;;10.85;56.95;95240.16;5025800;28;20174;-67
2022/10/04 05:48:55;;;;;;;3.40;2.40;;;;;;;10.91;56.81;95236.94;5034711;28;20205;-67
2022/10/04 05:51:28;;;;;;;3.10;1.93;;;;;;;10.89;56.67;95241.53;5025116;28;20230;-66
2022/10/04 05:53:56;;;;;;;2.80;2.40;;;;;;;10.95;56.29;95243.56;5030259;28;20250;-67
2022/10/04 05:56:53;;;;;;;2.30;2.10;;;;;;;10.85;56.49;95248.03;5032815;28;20201;-68
2022/10/04 05:59:44;;;;;;;2.47;2.27;;;;;;;10.86;56.49;95257.59;5029897;28;20205;-68
2022/10/04 06:02:31;;;;;;;2.87;2.17;;;;;;;10.85;57.13;95260.38;5031928;28;20194;-68
2022/10/04 06:05:15;;;;;;;4.53;2.07;;;;;;;10.85;56.76;95261.19;5025204;28;20182;-68
2022/10/04 06:07:53;;;;;;;5.23;2.30;;;;;;;10.88;56.90;95266.19;5033755;28;20190;-66
2022/10/04 06:10:27;;;;;;;3.70;2.40;;;;;;;11.18;56.40;95267.66;5027600;28;20259;-67
2022/10/04 06:13:06;;;;;;;4.70;2.73;;;;;;;11.45;55.10;95265.94;5023599;28;20190;-67
2022/10/04 06:15:46;;;;;;;5.60;2.23;;;;;;;11.61;54.96;95270.50;5033437;28;20185;-66
2022/10/04 06:18:42;;;;;;;4.23;2.40;;;;;;;11.63;54.58;95273.84;5028069;28;20178;-67
2022/10/04 06:21:20;;;;;;;3.40;2.57;;;;;;;11.45;54.83;95282.56;5031921;28;20205;-68
2022/10/04 06:23:55;;;;;;;3.00;2.00;;;;;;;11.41;55.51;95281.22;5027053;28;20186;-67
2022/10/04 06:26:27;;;;;;;2.47;2.20;;;;;;;11.47;55.08;95275.34;5029190;28;20190;-66
2022/10/04 06:29:10;;;;;;;2.67;1.93;;;;;;;11.54;54.37;95283.44;5032734;28;20213;-67
2022/10/04 06:32:07;;;;;;;2.73;2.10;;;;;;;11.59;54.02;95286.44;5031178;28;20202;-67
2022/10/04 06:34:38;;;;;;;3.03;2.17;;;;;;;11.65;54.51;95288.50;5031168;28;20260;-69
2022/10/04 06:37:19;;;;;;;2.73;2.17;;;;;;;11.91;53.55;95288.56;5028357;28;20195;-65
2022/10/04 06:40:25;;;;;;;5.83;2.97;;;;;;;12.19;53.50;95291.06;5035955;28;20190;-69
2022/10/04 06:43:09;;;;;;;3.67;2.10;;;;;;;12.30;53.21;95290.81;4985105;28;20182;-67
2022/10/04 06:46:06;;;;;;;3.37;2.20;;;;;;;12.48;52.15;95290.75;5007166;28;20272;-66
2022/10/04 06:48:37;;;;;;;2.73;1.93;;;;;;;12.58;52.03;95294.09;4995125;28;20280;-67
2022/10/04 06:51:08;;;;;;;2.43;1.90;;;;;;;12.81;51.33;95301.47;4984732;28;20230;-66
2022/10/04 06:53:59;;;;;;;3.38;2.03;;;;;;;12.69;51.68;95295.63;4986296;28;20344;-65
2022/10/04 06:56:49;;;;;;;2.60;2.05;;;;;;;12.84;51.69;95302.97;4990565;28;20277;-65
2022/10/04 06:59:43;;;;;;;4.20;1.90;;;;;;;12.62;51.59;95299.06;4994970;28;20201;-65
2022/10/04 07:02:20;;;;;;;3.10;2.03;;;;;;;12.47;51.83;95296.19;4990777;28;20197;-66
2022/10/04 07:04:53;;;;;;;1.83;1.48;;;;;;;12.62;51.08;95299.91;4984456;28;20190;-65
2022/10/04 07:07:37;;;;;;;2.55;1.95;;;;;;;12.71;50.45;95298.94;4991018;28;20213;-65
2022/10/04 07:10:37;;;;;;;2.65;1.75;;;;;;;12.69;50.63;95302.72;5006139;28;20186;-66
2022/10/04 07:13:41;;;;;;;1.85;1.60;;;;;;;12.53;50.92;95306.09;4996831;28;20205;-67
2022/10/04 07:16:26;;;;;;;1.60;1.50;;;;;;;12.55;50.73;95309.41;5031003;28;20288;-66
2022/10/04 07:19:02;;;;;;;1.75;1.65;;;;;;;12.47;50.82;95317.28;5024903;28;20177;-66
2022/10/04 07:21:37;;;;;;;2.22;2.00;;;;;;;12.49;50.68;95320.59;5026392;28;20185;-66
2022/10/04 07:24:08;;;;;;;3.55;1.63;;;;;;;12.46;50.86;95318.28;5013220;28;20289;-65
2022/10/04 07:26:47;;;;;;;3.38;1.92;;;;;;;12.33;51.32;95327.41;5010022;28;20259;-67
2022/10/04 07:29:36;;;;;;;1.65;1.55;;;;;;;12.32;50.94;95317.84;5033401;28;20201;-67
2022/10/04 07:32:04;;;;;;;1.90;1.80;;;;;;;12.44;50.95;95333.41;5013312;28;20284;-67
2022/10/04 07:34:41;;;;;;;2.00;1.75;;;;;;;12.68;50.25;95325.63;5015448;28;20296;-67
2022/10/04 07:37:11;;;;;;;2.72;2.00;;;;;;;12.75;49.92;95323.19;5024435;28;20193;-67
2022/10/04 07:39:39;;;;;;;5.43;1.88;;;;;;;12.79;49.50;95335.91;5026056;28;20217;-67
2022/10/04 07:42:12;;;;;;;2.72;1.88;;;;;;;12.64;49.20;95324.28;5015249;28;20338;-65
2022/10/04 07:44:41;;;;;;;2.05;1.67;;;;;;;12.78;49.29;95331.63;5028149;28;20233;-67
2022/10/04 07:47:27;;;;;;;2.85;2.47;;;;;;;12.83;49.30;95339.09;5011830;28;20272;-67
2022/10/04 07:49:53;;;;;;;2.20;2.00;;;;;;;13.03;48.73;95334.38;5026427;28;20213;-65
2022/10/04 07:52:47;;;;;;;2.13;1.92;;;;;;;13.04;47.55;95333.38;5024784;28;20222;-65
2022/10/04 07:55:31;;;;;;;2.35;2.05;;;;;;;12.96;47.40;95344.75;5028075;28;20209;-68
2022/10/04 07:58:15;;;;;;;3.70;2.70;;;;;;;12.76;47.98;95336.22;5024422;28;20187;-68
2022/10/04 08:00:58;;;;;;;4.22;3.13;;;;;;;12.88;48.26;95342.06;5028157;28;20198;-68
2022/10/04 08:03:49;;;;;;;3.30;2.40;;;;;;;13.05;47.91;95342.97;5030573;28;20186;-69
2022/10/04 08:06:53;;;;;;;3.13;2.25;;;;;;;13.12;46.63;95343.97;5010232;28;20270;-67
2022/10/04 08:09:40;;;;;;;3.25;2.20;;;;;;;13.12;46.33;95345.78;5025438;28;20264;-64
2022/10/04 08:12:32;;;;;;;2.90;2.00;;;;;;;13.16;46.45;95347.13;5032138;28;20207;-67
2022/10/04 08:15:27;;;;;;;2.05;1.83;;;;;;;13.25;46.66;95354.09;5029513;28;20189;-65
2022/10/04 08:18:15;;;;;;;2.78;1.92;;;;;;;13.51;46.18;95340.81;5000361;28;20209;-66
2022/10/04 08:20:49;;;;;;;2.30;2.00;;;;;;;13.56;45.92;95350.91;4996676;28;20197;-67
2022/10/04 08:23:50;;;;;;;1.77;1.42;;;;;;;13.41;45.95;95340.97;4994711;28;20205;-67
2022/10/04 08:26:42;;;;;;;2.08;1.45;;;;;;;13.58;45.40;95343.63;4917583;29;20203;-67
2022/10/04 08:29:42;;;;;;;2.35;1.50;;;;;;;13.76;44.58;95343.50;4919673;29;20281;-67
2022/10/04 08:32:36;;;;;;;2.70;1.80;;;;;;;13.75;44.61;95344.50;4919240;29;20272;-67
2022/10/04 08:35:18;;;;;;;2.45;1.83;;;;;;;13.74;44.55;95335.75;4915261;29;20190;-68
2022/10/04 08:38:01;;;;;;;3.03;1.60;;;;;;;13.64;44.68;95325.34;4920761;29;20201;-67
2022/10/04 08:41:02;;;;;;;2.10;1.73;;;;;;;13.66;44.95;95341.84;4917225;29;20194;-68
2022/10/04 08:43:48;;;;;;;2.00;1.67;;;;;;;13.89;44.28;95328.00;4905660;29;20204;-69
2022/10/04 08:46:31;;;;;;;1.85;1.40;;;;;;;14.08;44.20;95329.47;4921460;29;20193;-69
2022/10/04 08:49:30;;;;;;;2.22;1.70;;;;;;;14.15;43.98;95334.94;4916120;29;20202;-70
2022/10/04 08:52:33;;;;;;;1.70;1.10;;;;;;;14.09;43.98;95323.22;4912646;29;20400;-70
2022/10/04 08:55:19;;;;;;;2.38;1.35;;;;;;;13.81;44.66;95320.06;4891847;29;20198;-69
2022/10/04 08:58:14;;;;;;;1.40;1.30;;;;;;;14.05;44.12;95328.00;4895377;29;20293;-69
2022/10/04 09:00:57;;;;;;;1.02;1.02;;;;;;;13.91;44.55;95328.66;4896144;29;20198;-69
2022/10/04 09:03:43;;;;;;;1.25;1.17;;;;;;;13.67;45.12;95318.91;4936788;28;20214;-66
2022/10/04 09:06:35;;;;;;;2.15;1.60;;;;;;;14.07;44.78;95325.19;4966445;28;20200;-67
2022/10/04 09:09:39;;;;;;;1.83;1.73;;;;;;;14.12;45.12;95325.53;4962086;28;20279;-65
2022/10/04 09:12:30;;;;;;;2.28;1.60;;;;;;;14.37;44.51;95323.69;4973446;28;20262;-64
2022/10/04 09:15:33;;;;;;;1.40;1.30;;;;;;;14.46;43.95;95338.56;4971542;28;20226;-65
2022/10/04 09:18:29;;;;;;;1.88;1.10;;;;;;;14.39;42.89;95324.34;4974127;28;20196;-66
2022/10/04 09:21:19;;;;;;;2.67;1.45;;;;;;;14.39;43.09;95320.88;4956497;28;20188;-66
2022/10/04 09:24:36;;;;;;;1.50;1.40;;;;;;;14.58;42.49;95332.94;4963849;28;20271;-66
2022/10/04 09:27:39;;;;;;;1.23;1.15;;;;;;;14.61;42.99;95327.31;4887889;29;20217;-66
2022/10/04 09:30:19;;;;;;;2.05;1.30;;;;;;;14.67;43.08;95331.91;4902108;29;20282;-66
2022/10/04 09:33:06;;;;;;;1.75;1.35;;;;;;;14.77;43.33;95329.91;4897557;29;20290;-66
2022/10/04 09:35:43;;;;;;;2.20;1.45;;;;;;;14.74;42.86;95335.56;4892638;29;20259;-65
2022/10/04 09:38:39;;;;;;;2.47;1.40;;;;;;;14.68;42.94;95345.00;4928313;29;20198;-66
2022/10/04 09:41:25;;;;;;;2.17;1.20;;;;;;;14.70;42.56;95336.88;4931358;29;20209;-67
2022/10/04 09:44:12;;;;;;;1.60;1.40;;;;;;;14.69;42.91;95324.63;4919325;29;20204;-68
2022/10/04 09:47:00;;;;;;;2.70;1.75;;;;;;;14.96;42.50;95337.44;4915692;29;20192;-68
2022/10/04 09:49:38;;;;;;;2.58;1.60;;;;;;;14.97;42.18;95325.06;4931166;29;20197;-65
2022/10/04 09:52:42;;;;;;;3.55;1.60;;;;;;;14.87;42.17;95335.84;4936861;29;20241;-66
2022/10/04 09:55:13;;;;;;;2.90;1.38;;;;;;;14.78;42.89;95335.06;4953127;28;20234;-67
2022/10/04 09:58:13;;;;;;;2.05;1.70;;;;;;;14.84;42.63;95332.72;4946482;28;20185;-68
2022/10/04 10:00:41;;;;;;;1.58;1.48;;;;;;;15.09;42.40;95328.97;4935767;29;20197;-67
2022/10/04 10:03:52;;;;;;;1.73;1.35;;;;;;;15.34;42.54;95329.72;4941318;28;20201;-67
2022/10/04 10:06:39;;;;;;;1.40;1.30;;;;;;;15.38;41.79;95331.00;4938308;28;20243;-67
2022/10/04 10:13:38;;;;;;;3.45;1.10;;;;;;;15.63;41.55;95330.84;4938083;29;20181;-67
2022/10/04 10:15:28;;;;;;;1.75;1.45;;;;;;;15.75;41.78;95329.50;4955838;28;20231;-67
2022/10/04 10:18:03;;;;;;;3.05;1.48;;;;;;;15.79;41.77;95325.47;4932601;29;20275;-67
2022/10/04 10:21:07;;;;;;;1.50;1.40;;;;;;;15.97;40.82;95327.00;4953857;28;21384;-67
2022/10/04 10:23:51;;;;;;;2.60;1.40;;;;;;;16.08;40.99;95327.41;4949844;28;20691;-67
2022/10/04 10:26:43;;;;;;;1.80;1.70;;;;;;;16.45;40.27;95331.09;4942242;28;20255;-68
2022/10/04 10:29:43;;;;;;;1.52;1.42;;;;;;;17.09;38.70;95333.25;4918220;29;20208;-68
2022/10/04 10:32:08;;;;;;;1.50;1.40;;;;;;;17.59;38.54;95328.97;4948855;28;20225;-67
2022/10/04 10:34:45;;;;;;;2.53;1.30;;;;;;;16.88;38.68;95341.13;4962100;28;20232;-67
2022/10/04 10:37:45;;;;;;;1.95;1.60;;;;;;;16.94;38.83;95343.06;4929306;29;20200;-68
2022/10/04 10:40:40;;;;;;;3.65;1.70;;;;;;;17.55;38.85;95333.00;4935461;29;20283;-68
2022/10/04 10:43:21;;;;;;;2.13;1.38;;;;;;;17.88;37.01;95334.41;4932806;29;20189;-69
2022/10/04 10:46:04;;;;;;;1.45;1.35;;;;;;;17.97;37.46;95341.25;4931062;29;20239;-68
2022/10/04 10:48:58;;;;;;;1.75;1.45;;;;;;;17.91;36.39;95348.16;4946809;29;20281;-68
2022/10/04 10:51:44;;;;;;;1.98;1.40;;;;;;;17.85;36.50;95341.78;4944286;28;20247;-69
2022/10/04 10:54:37;;;;;;;2.95;1.50;;;;;;;17.82;37.15;95334.13;4945157;28;20351;-69
2022/10/04 10:57:35;;;;;;;1.52;1.42;;;;;;;17.75;37.86;95332.38;4945256;29;20217;-70
2022/10/04 11:00:16;;;;;;;2.05;1.50;;;;;;;17.51;38.16;95334.41;4979428;28;20206;-70
2022/10/04 11:03:10;;;;;;;2.22;2.03;;;;;;;17.27;38.19;95343.53;4991924;28;20195;-70
2022/10/04 11:06:03;;;;;;;2.28;1.80;;;;;;;17.50;37.27;95339.91;4995029;28;20202;-70
2022/10/04 11:09:09;;;;;;;2.75;2.53;;;;;;;17.47;37.76;95345.59;4993758;28;20187;-72
2022/10/04 11:12:08;;;;;;;4.93;3.45;;;;;;;17.41;39.23;95342.66;4929299;29;20213;-72
2022/10/04 11:14:55;;;;;;;1.95;1.63;;;;;;;17.22;38.20;95355.72;4928219;29;20242;-71
2022/10/04 11:17:48;;;;;;;2.85;1.80;;;;;;;17.22;38.30;95339.78;4915998;29;20204;-70
2022/10/04 11:20:30;;;;;;;3.45;1.60;;;;;;;17.20;37.95;95346.06;4905708;29;20223;-71
2022/10/04 11:23:13;;;;;;;2.10;1.90;;;;;;;17.56;37.87;95344.44;4912024;29;20206;-70
2022/10/04 11:26:23;;;;;;;2.05;1.60;;;;;;;17.89;36.66;95346.72;4927519;29;20321;-70
2022/10/04 11:29:09;;;;;;;1.48;1.25;;;;;;;17.51;37.05;95337.06;4860956;29;20271;-70
2022/10/04 11:31:59;;;;;;;4.53;1.70;;;;;;;18.40;36.37;95347.38;4853446;29;20219;-72
2022/10/04 11:34:46;;;;;;;2.55;1.50;;;;;;;18.86;34.60;95349.59;4858526;29;20321;-71
2022/10/04 11:37:56;;;;;;;1.90;1.63;;;;;;;19.29;34.84;95352.09;4818655;29;20736;-71
2022/10/04 11:40:58;;;;;;;2.97;1.60;;;;;;;19.47;33.76;95348.09;4856334;29;20268;-70
2022/10/04 11:43:36;;;;;;;3.90;1.50;;;;;;;19.78;34.26;95342.25;4841244;29;20203;-70
2022/10/04 11:46:20;;;;;;;1.83;1.50;;;;;;;20.50;32.11;95343.41;4889842;29;20205;-67
2022/10/04 11:49:11;;;;;;;2.05;1.48;;;;;;;20.54;30.98;95352.69;4896863;29;20205;-69
2022/10/04 11:51:58;;;;;;;4.00;1.48;;;;;;;20.65;31.18;95340.56;4906605;29;20236;-69
2022/10/04 11:55:00;;;;;;;2.47;1.40;;;;;;;20.30;31.90;95348.75;4913626;29;20291;-69
2022/10/04 11:58:08;;;;;;;1.30;1.20;;;;;;;19.17;32.87;95364.34;4932282;29;20209;-68
2022/10/04 12:01:05;;;;;;;2.05;1.58;;;;;;;19.24;33.41;95357.19;4911518;29;20712;-71
2022/10/04 12:03:49;;;;;;;2.60;1.30;;;;;;;20.40;31.44;95349.16;4954963;28;20224;-70
2022/10/04 12:06:23;;;;;;;1.85;1.17;;;;;;;20.46;31.16;95350.19;4989533;28;20211;-71
2022/10/04 12:09:04;;;;;;;1.30;1.20;;;;;;;19.68;31.82;95345.34;4976083;28;20221;-69
2022/10/04 12:15:14;;;;;;;3.17;1.50;;;;;;;19.29;33.16;95349.44;4990962;28;20285;-69
2022/10/04 12:18:10;;;;;;;2.80;1.60;;;;;;;19.78;32.42;95345.78;4989194;28;20195;-69
2022/10/04 12:21:13;;;;;;;2.70;1.40;;;;;;;19.12;32.58;95348.13;4989767;28;20179;-68
2022/10/04 12:24:05;;;;;;;1.42;1.30;;;;;;;21.50;29.60;95352.16;4992553;28;20197;-68
2022/10/04 12:26:56;;;;;;;2.88;1.25;;;;;;;28.45;19.79;95345.34;4988615;28;20257;-68
2022/10/04 12:29:35;;;;;;;1.80;1.70;;;;;;;37.69;11.53;95338.94;4985870;28;20298;-68
2022/10/04 12:32:13;;;;;;;2.70;1.50;;;;;;;37.33;11.40;95352.78;4987843;28;20562;-70
2022/10/04 12:34:47;;;;;;;3.45;2.40;;;;;;;40.63;9.00;95352.66;4990676;28;20871;-71
2022/10/04 12:37:22;;;;;;;1.50;1.40;;;;;;;41.54;7.68;95355.63;4991479;28;20179;-71
2022/10/04 12:40:18;;;;;;;2.88;2.00;;;;;;;42.90;7.09;95361.94;4994816;28;20179;-71
2022/10/04 12:43:04;;;;;;;3.08;2.50;;;;;;;43.12;6.62;95360.56;4996540;28;20175;-71
2022/10/04 12:45:40;;;;;;;1.40;1.30;;;;;;;36.96;10.53;95354.78;4995509;28;20198;-71